createdAt,value
2022-09-18T00:00:42.430Z,23.84
2022-09-18T00:19:30.654Z,23.94
2022-09-18T00:20:22.496Z,23.95
2022-09-18T00:30:46.493Z,23.76
2022-09-18T00:31:36.671Z,23.77
2022-09-18T00:32:28.580Z,23.78
2022-09-18T00:33:22.600Z,23.77
2022-09-18T00:34:09.907Z,23.78
2022-09-18T00:34:54.380Z,23.76
2022-09-18T00:35:45.599Z,23.76
2022-09-18T00:36:44.972Z,23.76
2022-09-18T00:37:34.767Z,23.79
2022-09-18T00:38:22.341Z,23.73
2022-09-18T00:41:44.951Z,23.71
2022-09-18T00:42:28.143Z,23.74
2022-09-18T00:43:30.333Z,23.75
2022-09-18T00:44:31.820Z,23.68
2022-09-18T00:45:23.592Z,23.76
2022-09-18T00:46:06.569Z,23.74
2022-09-18T00:48:01.171Z,23.67
2022-09-18T00:48:54.305Z,23.68
2022-09-18T00:49:48.513Z,23.71
2022-09-18T00:50:38.894Z,23.69
2022-09-18T00:51:22.777Z,23.71
2022-09-18T00:52:16.358Z,23.76
2022-09-18T00:52:59.983Z,23.66
2022-09-18T00:57:51.311Z,23.71
2022-09-18T00:58:40.415Z,23.72
2022-09-18T01:09:00.863Z,23.71
2022-09-18T01:09:44.053Z,23.67
2022-09-18T01:10:43.808Z,23.71
2022-09-18T01:11:26.694Z,23.71
2022-09-18T01:12:13.981Z,23.77
2022-09-18T01:17:09.619Z,23.80
2022-09-18T01:18:16.066Z,23.67
2022-09-18T01:19:18.470Z,23.75
2022-09-18T01:20:07.480Z,23.74
2022-09-18T01:21:16.565Z,23.74
2022-09-18T01:21:59.254Z,23.73
2022-09-18T01:22:54.370Z,23.69
2022-09-18T01:23:53.324Z,23.52
2022-09-18T01:24:49.223Z,23.55
2022-09-18T01:25:43.382Z,23.64
2022-09-18T01:26:45.040Z,23.73
2022-09-18T01:27:51.881Z,23.79
2022-09-18T01:28:49.751Z,23.81
2022-09-18T01:29:43.036Z,23.86
2022-09-18T01:30:38.593Z,23.83
2022-09-18T01:31:44.338Z,23.80
2022-09-18T01:32:44.845Z,23.78
2022-09-18T01:33:40.490Z,23.86
2022-09-18T01:34:33.277Z,23.87
2022-09-18T01:35:41.713Z,23.89
2022-09-18T01:36:33.469Z,23.88
2022-09-18T01:37:37.115Z,23.89
2022-09-18T01:38:25.964Z,23.92
2022-09-18T01:41:18.261Z,23.92
2022-09-18T01:42:07.875Z,23.93
2022-09-18T01:43:02.903Z,23.97
2022-09-18T01:43:51.064Z,23.97
2022-09-18T01:45:52.653Z,24.01
2022-09-18T01:46:35.707Z,23.97
2022-09-18T01:48:49.701Z,23.97
2022-09-18T01:49:39.197Z,23.93
2022-09-18T01:50:35.352Z,23.93
2022-09-18T01:51:34.511Z,23.99
2022-09-18T01:52:40.586Z,23.99
2022-09-18T01:53:26.712Z,23.97
2022-09-18T01:54:15.259Z,23.98
2022-09-18T01:55:03.764Z,23.98
2022-09-18T01:55:49.789Z,24.01
2022-09-18T01:57:09.028Z,24.03
2022-09-18T01:58:03.897Z,24.01
2022-09-18T01:58:55.140Z,24.02
2022-09-18T01:59:48.518Z,24.03
2022-09-18T02:00:38.666Z,24.04
2022-09-18T02:01:29.924Z,24.00
2022-09-18T02:02:21.754Z,23.99
2022-09-18T02:03:19.885Z,24.02
2022-09-18T02:04:11.772Z,23.98
2022-09-18T02:05:02.552Z,23.99
2022-09-18T02:05:52.613Z,24.08
2022-09-18T02:06:43.722Z,24.04
2022-09-18T02:07:43.312Z,24.05
2022-09-18T02:08:38.068Z,23.98
2022-09-18T02:09:31.345Z,23.99
2022-09-18T02:10:25.664Z,23.89
2022-09-18T02:11:20.051Z,23.91
2022-09-18T02:12:12.390Z,23.91
2022-09-18T02:13:03.199Z,23.85
2022-09-18T02:14:01.821Z,23.82
2022-09-18T02:14:53.698Z,23.85
2022-09-18T02:15:55.343Z,23.89
2022-09-18T02:16:54.627Z,23.86
2022-09-18T02:18:54.252Z,23.88
2022-09-18T02:19:43.206Z,23.92
2022-09-18T02:20:41.942Z,23.89
2022-09-18T02:21:32.709Z,23.85
2022-09-18T02:22:21.803Z,23.83
2022-09-18T02:23:14.926Z,23.85
2022-09-18T02:24:08.457Z,23.83
2022-09-18T02:24:59.791Z,23.80
2022-09-18T02:25:51.824Z,23.76
2022-09-18T02:26:43.493Z,23.76
2022-09-18T02:27:30.368Z,23.77
2022-09-18T02:28:20.093Z,23.77
2022-09-18T02:29:11.639Z,23.81
2022-09-18T02:30:09.267Z,23.73
2022-09-18T02:30:59.569Z,23.79
2022-09-18T02:31:50.124Z,23.79
2022-09-18T02:32:41.188Z,23.78
2022-09-18T02:33:41.399Z,23.77
2022-09-18T02:34:31.045Z,23.79
2022-09-18T02:35:19.367Z,23.76
2022-09-18T02:36:21.901Z,23.78
2022-09-18T02:37:04.943Z,23.75
2022-09-18T02:38:05.311Z,23.74
2022-09-18T02:39:11.829Z,23.72
2022-09-18T02:40:13.310Z,23.70
2022-09-18T02:41:05.291Z,23.70
2022-09-18T02:42:05.095Z,23.71
2022-09-18T02:49:00.320Z,23.66
2022-09-18T02:50:03.462Z,23.66
2022-09-18T02:51:07.824Z,23.66
2022-09-18T02:51:55.671Z,23.65
2022-09-18T02:52:46.331Z,23.66
2022-09-18T02:53:47.785Z,23.63
2022-09-18T02:54:44.514Z,23.66
2022-09-18T02:55:35.694Z,23.65
2022-09-18T02:56:34.967Z,23.64
2022-09-18T02:57:29.358Z,23.64
2022-09-18T02:58:25.001Z,23.63
2022-09-18T02:59:16.822Z,23.67
2022-09-18T03:00:09.121Z,23.63
2022-09-18T03:00:58.798Z,23.59
2022-09-18T03:01:49.208Z,23.60
2022-09-18T03:02:39.305Z,23.65
2022-09-18T03:03:39.245Z,23.62
2022-09-18T03:04:30.070Z,23.64
2022-09-18T03:05:18.927Z,23.58
2022-09-18T03:06:05.334Z,23.57
2022-09-18T03:06:54.033Z,23.63
2022-09-18T03:07:43.461Z,23.62
2022-09-18T03:08:33.518Z,23.62
2022-09-18T03:09:29.108Z,23.60
2022-09-18T03:10:19.358Z,23.62
2022-09-18T03:11:03.378Z,23.61
2022-09-18T03:11:51.309Z,23.64
2022-09-18T03:12:39.160Z,23.62
2022-09-18T03:13:29.717Z,23.63
2022-09-18T03:14:32.397Z,23.65
2022-09-18T03:15:19.601Z,23.63
2022-09-18T03:16:09.506Z,23.61
2022-09-18T03:16:58.676Z,23.63
2022-09-18T03:17:45.200Z,23.61
2022-09-18T03:18:33.156Z,23.61
2022-09-18T03:19:28.105Z,23.58
2022-09-18T03:20:18.867Z,23.55
2022-09-18T03:21:08.357Z,23.56
2022-09-18T03:21:57.532Z,23.56
2022-09-18T03:22:48.401Z,23.55
2022-09-18T03:23:36.978Z,23.56
2022-09-18T03:24:28.402Z,23.58
2022-09-18T03:25:19.565Z,23.55
2022-09-18T03:26:10.596Z,23.57
2022-09-18T03:26:58.951Z,23.58
2022-09-18T03:27:49.967Z,23.56
2022-09-18T03:28:40.826Z,23.61
2022-09-18T03:29:39.377Z,23.60
2022-09-18T03:30:31.687Z,23.54
2022-09-18T03:31:23.859Z,23.53
2022-09-18T03:32:14.818Z,23.50
2022-09-18T03:32:58.387Z,23.54
2022-09-18T03:33:43.444Z,23.52
2022-09-18T03:35:36.600Z,23.52
2022-09-18T03:36:23.049Z,23.57
2022-09-18T03:37:14.061Z,23.56
2022-09-18T03:37:59.673Z,23.56
2022-09-18T03:38:51.045Z,23.55
2022-09-18T03:39:47.048Z,23.55
2022-09-18T03:40:36.717Z,23.54
2022-09-18T03:41:26.922Z,23.50
2022-09-18T03:42:19.666Z,23.53
2022-09-18T03:43:10.337Z,23.56
2022-09-18T03:44:03.104Z,23.51
2022-09-18T03:44:52.811Z,23.53
2022-09-18T03:45:40.913Z,23.52
2022-09-18T03:47:24.193Z,23.48
2022-09-18T03:48:23.265Z,23.48
2022-09-18T03:49:15.241Z,23.55
2022-09-18T03:49:59.692Z,23.53
2022-09-18T03:50:53.117Z,23.48
2022-09-18T03:51:40.616Z,23.47
2022-09-18T03:58:25.704Z,23.49
2022-09-18T03:59:15.115Z,23.48
2022-09-18T04:00:05.246Z,23.49
2022-09-18T04:00:57.807Z,23.48
2022-09-18T04:01:54.675Z,23.49
2022-09-18T04:02:46.263Z,23.45
2022-09-18T04:03:33.564Z,23.48
2022-09-18T04:04:23.093Z,23.46
2022-09-18T04:05:10.019Z,23.49
2022-09-18T04:06:05.413Z,23.50
2022-09-18T04:06:48.614Z,23.50
2022-09-18T04:07:36.384Z,23.48
2022-09-18T04:08:24.457Z,23.49
2022-09-18T04:09:16.073Z,23.49
2022-09-18T04:10:07.930Z,23.47
2022-09-18T04:10:57.961Z,23.49
2022-09-18T04:11:58.101Z,23.47
2022-09-18T04:12:47.304Z,23.47
2022-09-18T04:13:35.981Z,23.45
2022-09-18T04:14:30.299Z,23.48
2022-09-18T04:15:20.981Z,23.49
2022-09-18T04:16:13.499Z,23.45
2022-09-18T04:17:08.099Z,23.46
2022-09-18T04:17:57.977Z,23.46
2022-09-18T04:18:47.888Z,23.46
2022-09-18T04:19:39.683Z,23.51
2022-09-18T04:20:33.257Z,23.48
2022-09-18T04:21:25.625Z,23.48
2022-09-18T04:23:21.067Z,23.47
2022-09-18T04:24:08.623Z,23.45
2022-09-18T04:28:55.055Z,23.47
2022-09-18T04:29:53.284Z,23.46
2022-09-18T04:30:38.528Z,23.47
2022-09-18T04:31:28.947Z,23.40
2022-09-18T04:32:20.408Z,23.44
2022-09-18T04:32:59.536Z,23.45
2022-09-18T04:33:45.693Z,23.44
2022-09-18T04:34:39.321Z,23.44
2022-09-18T04:35:28.177Z,23.47
2022-09-18T04:36:28.723Z,23.47
2022-09-18T04:37:17.752Z,23.47
2022-09-18T04:38:30.012Z,23.44
2022-09-18T04:39:22.206Z,23.43
2022-09-18T04:40:15.978Z,23.44
2022-09-18T04:41:05.779Z,23.42
2022-09-18T04:41:48.919Z,23.44
2022-09-18T04:42:37.408Z,23.40
2022-09-18T04:43:20.543Z,23.43
2022-09-18T04:44:11.057Z,23.40
2022-09-18T04:45:04.975Z,23.43
2022-09-18T04:45:54.982Z,23.44
2022-09-18T04:46:50.165Z,23.45
2022-09-18T04:47:39.992Z,23.45
2022-09-18T04:48:26.844Z,23.39
2022-09-18T04:49:15.934Z,23.40
2022-09-18T04:50:09.630Z,23.43
2022-09-18T04:50:57.280Z,23.38
2022-09-18T04:51:45.039Z,23.41
2022-09-18T04:52:31.276Z,23.43
2022-09-18T04:53:22.492Z,23.43
2022-09-18T04:54:20.276Z,23.41
2022-09-18T04:55:10.060Z,23.44
2022-09-18T04:55:57.986Z,23.43
2022-09-18T04:56:47.256Z,23.43
2022-09-18T04:57:32.382Z,23.47
2022-09-18T04:58:21.688Z,23.43
2022-09-18T04:59:11.577Z,23.46
2022-09-18T05:00:05.373Z,23.45
2022-09-18T05:00:54.192Z,23.45
2022-09-18T05:01:43.769Z,23.47
2022-09-18T05:02:34.199Z,23.48
2022-09-18T05:03:23.014Z,23.50
2022-09-18T05:04:13.839Z,23.44
2022-09-18T05:05:08.673Z,23.42
2022-09-18T05:05:57.965Z,23.45
2022-09-18T05:07:43.362Z,23.42
2022-09-18T05:08:34.368Z,23.38
2022-09-18T05:09:24.272Z,23.39
2022-09-18T05:10:18.394Z,23.43
2022-09-18T05:11:09.874Z,23.43
2022-09-18T05:12:16.537Z,23.43
2022-09-18T05:13:05.157Z,23.44
2022-09-18T05:13:54.824Z,23.42
2022-09-18T05:14:47.884Z,23.45
2022-09-18T05:18:52.279Z,23.37
2022-09-18T05:19:45.827Z,23.42
2022-09-18T05:20:35.887Z,23.40
2022-09-18T05:21:24.051Z,23.40
2022-09-18T05:22:12.661Z,23.44
2022-09-18T05:23:02.303Z,23.39
2022-09-18T05:23:45.801Z,23.34
2022-09-18T05:24:36.220Z,23.38
2022-09-18T05:25:34.800Z,23.34
2022-09-18T05:26:23.286Z,23.36
2022-09-18T05:27:12.640Z,23.35
2022-09-18T05:28:50.168Z,23.37
2022-09-18T05:29:38.951Z,23.38
2022-09-18T05:30:31.926Z,23.38
2022-09-18T05:31:22.017Z,23.42
2022-09-18T05:32:12.318Z,23.40
2022-09-18T05:33:05.731Z,23.42
2022-09-18T05:33:53.976Z,23.43
2022-09-18T05:34:41.851Z,23.38
2022-09-18T05:35:33.102Z,23.35
2022-09-18T05:36:22.597Z,23.36
2022-09-18T05:37:07.909Z,23.38
2022-09-18T05:37:56.792Z,23.40
2022-09-18T05:38:45.819Z,23.37
2022-09-18T05:39:35.366Z,23.41
2022-09-18T05:48:25.517Z,23.36
2022-09-18T05:49:19.053Z,23.37
2022-09-18T05:50:11.869Z,23.33
2022-09-18T05:51:06.913Z,23.35
2022-09-18T05:51:58.988Z,23.33
2022-09-18T05:52:44.847Z,23.35
2022-09-18T05:58:35.966Z,23.34
2022-09-18T05:59:29.931Z,23.31
2022-09-18T06:00:21.699Z,23.32
2022-09-18T06:01:14.004Z,23.33
2022-09-18T06:02:11.305Z,23.33
2022-09-18T06:03:10.265Z,23.34
2022-09-18T06:03:54.560Z,23.33
2022-09-18T06:04:46.110Z,23.35
2022-09-18T06:05:43.945Z,23.35
2022-09-18T06:06:33.782Z,23.37
2022-09-18T06:07:24.920Z,23.35
2022-09-18T06:08:18.931Z,23.33
2022-09-18T06:09:11.047Z,23.34
2022-09-18T06:10:02.422Z,23.36
2022-09-18T06:10:55.449Z,23.38
2022-09-18T06:11:54.053Z,23.34
2022-09-18T06:12:46.399Z,23.33
2022-09-18T06:13:38.197Z,23.35
2022-09-18T06:14:32.849Z,23.36
2022-09-18T06:15:25.050Z,23.35
2022-09-18T06:16:20.557Z,23.36
2022-09-18T06:17:10.721Z,23.34
2022-09-18T06:18:01.020Z,23.33
2022-09-18T06:18:52.652Z,23.32
2022-09-18T06:19:45.926Z,23.37
2022-09-18T06:20:37.545Z,23.38
2022-09-18T06:21:29.825Z,23.39
2022-09-18T06:22:24.475Z,23.38
2022-09-18T06:23:20.630Z,23.35
2022-09-18T06:28:58.677Z,23.36
2022-09-18T06:32:36.325Z,23.37
2022-09-18T06:33:34.166Z,23.35
2022-09-18T06:34:21.719Z,23.34
2022-09-18T06:35:16.011Z,23.34
2022-09-18T06:36:09.506Z,23.34
2022-09-18T06:37:02.538Z,23.37
2022-09-18T06:37:58.446Z,23.35
2022-09-18T06:38:57.809Z,23.37
2022-09-18T06:39:50.714Z,23.36
2022-09-18T06:40:43.936Z,23.35
2022-09-18T06:41:36.637Z,23.38
2022-09-18T06:42:25.778Z,23.37
2022-09-18T06:43:18.518Z,23.38
2022-09-18T06:44:15.584Z,23.35
2022-09-18T06:45:06.945Z,23.35
2022-09-18T06:45:54.053Z,23.37
2022-09-18T06:47:13.750Z,23.41
2022-09-18T06:48:56.356Z,23.38
2022-09-18T06:49:49.349Z,23.40
2022-09-18T06:50:45.624Z,23.38
2022-09-18T06:51:37.461Z,23.38
2022-09-18T06:52:30.805Z,23.34
2022-09-18T06:54:33.291Z,23.42
2022-09-18T06:55:20.045Z,23.35
2022-09-18T06:57:24.396Z,23.37
2022-09-18T06:58:52.637Z,23.37
2022-09-18T06:59:43.784Z,23.38
2022-09-18T07:00:33.632Z,23.38
2022-09-18T07:01:34.966Z,23.36
2022-09-18T07:02:26.190Z,23.38
2022-09-18T07:03:19.924Z,23.37
2022-09-18T07:04:18.024Z,23.34
2022-09-18T07:05:12.976Z,23.34
2022-09-18T07:06:07.037Z,23.30
2022-09-18T07:06:59.880Z,23.32
2022-09-18T07:07:50.295Z,23.36
2022-09-18T07:08:44.280Z,23.38
2022-09-18T07:10:36.012Z,23.38
2022-09-18T07:12:32.923Z,23.37
2022-09-18T07:18:25.073Z,23.33
2022-09-18T07:19:19.187Z,23.31
2022-09-18T07:24:28.174Z,23.30
2022-09-18T07:28:01.235Z,23.27
2022-09-18T07:28:53.093Z,23.25
2022-09-18T07:29:42.815Z,23.33
2022-09-18T07:30:35.822Z,23.32
2022-09-18T07:31:29.504Z,23.32
2022-09-18T07:32:22.334Z,23.33
2022-09-18T07:33:07.103Z,23.35
2022-09-18T07:33:55.224Z,23.32
2022-09-18T07:34:46.723Z,23.31
2022-09-18T07:35:39.528Z,23.32
2022-09-18T07:36:21.573Z,23.35
2022-09-18T07:37:18.357Z,23.34
2022-09-18T07:38:55.753Z,23.34
2022-09-18T07:39:50.239Z,23.36
2022-09-18T07:48:25.655Z,23.36
2022-09-18T07:49:17.399Z,23.37
2022-09-18T07:50:07.070Z,23.33
2022-09-18T07:52:34.301Z,23.32
2022-09-18T07:53:43.319Z,23.31
2022-09-18T07:54:36.155Z,23.31
2022-09-18T07:55:24.627Z,23.29
2022-09-18T07:56:16.315Z,23.33
2022-09-18T07:58:29.716Z,23.31
2022-09-18T07:59:24.493Z,23.33
2022-09-18T08:00:15.323Z,23.33
2022-09-18T08:01:05.648Z,23.33
2022-09-18T08:01:54.999Z,23.33
2022-09-18T08:02:43.755Z,23.35
2022-09-18T08:03:41.716Z,23.37
2022-09-18T08:08:25.954Z,23.33
2022-09-18T08:09:21.759Z,23.31
2022-09-18T08:10:18.695Z,23.33
2022-09-18T08:11:12.298Z,23.36
2022-09-18T08:11:57.250Z,23.37
2022-09-18T08:12:44.574Z,23.35
2022-09-18T08:13:37.006Z,23.35
2022-09-18T08:14:28.962Z,23.37
2022-09-18T08:15:25.575Z,23.35
2022-09-18T08:17:11.315Z,23.33
2022-09-18T08:17:58.371Z,23.33
2022-09-18T08:18:48.221Z,23.36
2022-09-18T08:19:39.615Z,23.37
2022-09-18T08:20:30.829Z,23.38
2022-09-18T08:21:20.343Z,23.37
2022-09-18T08:22:10.319Z,23.36
2022-09-18T08:22:58.631Z,23.34
2022-09-18T08:23:47.105Z,23.36
2022-09-18T08:24:31.644Z,23.37
2022-09-18T08:25:23.239Z,23.34
2022-09-18T08:26:16.659Z,23.34
2022-09-18T08:27:10.894Z,23.33
2022-09-18T08:28:00.936Z,23.37
2022-09-18T08:28:50.932Z,23.37
2022-09-18T08:29:38.538Z,23.36
2022-09-18T08:30:36.502Z,23.39
2022-09-18T08:31:23.941Z,23.38
2022-09-18T08:32:17.326Z,23.39
2022-09-18T08:33:19.030Z,23.39
2022-09-18T08:35:12.663Z,23.37
2022-09-18T08:38:53.358Z,23.38
2022-09-18T08:39:45.120Z,23.37
2022-09-18T08:40:37.729Z,23.37
2022-09-18T08:49:16.076Z,23.36
2022-09-18T08:50:05.711Z,23.33
2022-09-18T08:50:58.206Z,23.37
2022-09-18T08:51:51.671Z,23.32
2022-09-18T08:52:40.392Z,23.31
2022-09-18T08:53:37.172Z,23.35
2022-09-18T08:54:33.575Z,23.38
2022-09-18T08:55:25.009Z,23.40
2022-09-18T08:56:18.595Z,23.36
2022-09-18T08:57:10.185Z,23.32
2022-09-18T08:58:05.025Z,23.35
2022-09-18T08:58:54.877Z,23.32
2022-09-18T08:59:48.233Z,23.37
2022-09-18T09:00:42.227Z,23.33
2022-09-18T09:01:38.441Z,23.34
2022-09-18T09:02:43.238Z,23.32
2022-09-18T09:03:31.056Z,23.33
2022-09-18T09:04:39.250Z,23.30
2022-09-18T09:05:28.108Z,23.29
2022-09-18T09:06:28.810Z,23.27
2022-09-18T09:07:29.438Z,23.25
2022-09-18T09:08:22.132Z,23.28
2022-09-18T09:09:05.663Z,23.26
2022-09-18T09:09:53.650Z,23.23
2022-09-18T09:10:53.078Z,23.19
2022-09-18T09:11:58.858Z,23.25
2022-09-18T09:13:00.825Z,23.31
2022-09-18T09:14:03.908Z,23.33
2022-09-18T09:14:57.217Z,23.27
2022-09-18T09:15:52.235Z,23.32
2022-09-18T09:16:46.652Z,23.31
2022-09-18T09:17:41.920Z,23.33
2022-09-18T09:18:33.426Z,23.36
2022-09-18T09:19:30.599Z,23.30
2022-09-18T09:20:23.700Z,23.33
2022-09-18T09:21:35.468Z,23.32
2022-09-18T09:22:39.634Z,23.35
2022-09-18T09:23:36.068Z,23.34
2022-09-18T09:24:24.356Z,23.29
2022-09-18T09:28:40.123Z,23.35
2022-09-18T09:29:33.504Z,23.33
2022-09-18T09:30:25.817Z,23.31
2022-09-18T09:31:18.256Z,23.31
2022-09-18T09:32:07.639Z,23.31
2022-09-18T09:32:52.873Z,23.30
2022-09-18T09:33:38.973Z,23.29
2022-09-18T09:34:37.509Z,23.32
2022-09-18T09:38:51.063Z,23.30
2022-09-18T09:39:41.669Z,23.29
2022-09-18T09:40:25.625Z,23.28
2022-09-18T09:41:44.303Z,23.29
2022-09-18T09:42:35.123Z,23.31
2022-09-18T09:43:38.524Z,23.30
2022-09-18T09:44:41.182Z,23.31
2022-09-18T09:45:35.150Z,23.32
2022-09-18T09:46:47.151Z,23.32
2022-09-18T09:47:40.107Z,23.32
2022-09-18T09:48:31.976Z,23.34
2022-09-18T09:49:22.854Z,23.32
2022-09-18T09:50:07.746Z,23.39
2022-09-18T09:50:56.735Z,23.37
2022-09-18T09:51:49.611Z,23.33
2022-09-18T09:52:38.430Z,23.35
2022-09-18T09:53:33.381Z,23.39
2022-09-18T09:54:23.194Z,23.38
2022-09-18T09:55:11.386Z,23.36
2022-09-18T09:59:37.518Z,23.39
2022-09-18T10:00:23.758Z,23.39
2022-09-18T10:01:18.570Z,23.41
2022-09-18T10:02:04.066Z,23.35
2022-09-18T10:02:51.539Z,23.35
2022-09-18T10:03:42.201Z,23.36
2022-09-18T10:04:59.090Z,23.37
2022-09-18T10:05:54.462Z,23.40
2022-09-18T10:07:00.416Z,23.36
2022-09-18T10:08:45.105Z,23.40
2022-09-18T10:09:40.333Z,23.38
2022-09-18T10:10:33.315Z,23.38
2022-09-18T10:11:24.289Z,23.38
2022-09-18T10:12:08.068Z,23.38
2022-09-18T10:13:11.176Z,23.35
2022-09-18T10:13:53.088Z,23.39
2022-09-18T10:14:41.724Z,23.37
2022-09-18T10:15:35.840Z,23.38
2022-09-18T10:16:48.997Z,23.36
2022-09-18T10:17:42.962Z,23.38
2022-09-18T10:18:33.223Z,23.34
2022-09-18T10:19:23.387Z,23.36
2022-09-18T10:20:17.319Z,23.36
2022-09-18T10:21:13.170Z,23.32
2022-09-18T10:22:05.559Z,23.35
2022-09-18T10:22:54.978Z,23.34
2022-09-18T10:23:49.665Z,23.34
2022-09-18T10:24:39.364Z,23.35
2022-09-18T10:25:40.301Z,23.37
2022-09-18T10:28:52.124Z,23.36
2022-09-18T10:29:45.959Z,23.32
2022-09-18T10:30:36.668Z,23.34
2022-09-18T10:31:32.291Z,23.40
2022-09-18T10:32:23.291Z,23.38
2022-09-18T10:33:14.884Z,23.38
2022-09-18T10:34:09.289Z,23.35
2022-09-18T10:35:02.542Z,23.38
2022-09-18T10:35:58.775Z,23.34
2022-09-18T10:37:55.343Z,23.34
2022-09-18T10:38:48.986Z,23.31
2022-09-18T10:39:42.241Z,23.31
2022-09-18T10:40:42.615Z,23.37
2022-09-18T10:41:37.206Z,23.33
2022-09-18T10:42:30.711Z,23.35
2022-09-18T10:43:27.502Z,23.38
2022-09-18T10:44:20.328Z,23.35
2022-09-18T10:45:10.594Z,23.34
2022-09-18T10:46:07.362Z,23.39
2022-09-18T10:47:07.895Z,23.35
2022-09-18T10:48:01.105Z,23.37
2022-09-18T10:49:38.256Z,23.38
2022-09-18T10:50:34.116Z,23.42
2022-09-18T10:51:26.112Z,23.36
2022-09-18T10:52:41.852Z,23.39
2022-09-18T10:53:49.358Z,23.40
2022-09-18T10:54:42.343Z,23.37
2022-09-18T10:55:33.825Z,23.38
2022-09-18T10:56:31.448Z,23.43
2022-09-18T10:57:33.442Z,23.42
2022-09-18T10:58:31.967Z,23.39
2022-09-18T10:59:32.027Z,23.35
2022-09-18T11:00:18.015Z,23.34
2022-09-18T11:01:07.149Z,23.34
2022-09-18T11:01:59.403Z,23.34
2022-09-18T11:02:47.799Z,23.35
2022-09-18T11:03:35.905Z,23.39
2022-09-18T11:04:28.373Z,23.40
2022-09-18T11:05:24.823Z,23.40
2022-09-18T11:06:17.006Z,23.39
2022-09-18T11:07:08.990Z,23.41
2022-09-18T11:08:00.054Z,23.39
2022-09-18T11:08:58.273Z,23.42
2022-09-18T11:09:54.593Z,23.39
2022-09-18T11:10:45.989Z,23.34
2022-09-18T11:11:36.590Z,23.39
2022-09-18T11:12:28.304Z,23.38
2022-09-18T11:13:18.478Z,23.37
2022-09-18T11:14:20.413Z,23.37
2022-09-18T11:15:15.506Z,23.39
2022-09-18T11:16:05.928Z,23.36
2022-09-18T11:16:57.494Z,23.39
2022-09-18T11:17:50.974Z,23.34
2022-09-18T11:18:43.359Z,23.39
2022-09-18T11:19:42.565Z,23.41
2022-09-18T11:20:34.152Z,23.40
2022-09-18T11:21:25.600Z,23.40
2022-09-18T11:22:16.322Z,23.38
2022-09-18T11:23:07.071Z,23.41
2022-09-18T11:23:59.033Z,23.42
2022-09-18T11:24:54.868Z,23.42
2022-09-18T11:25:43.958Z,23.41
2022-09-18T11:26:37.320Z,23.35
2022-09-18T11:27:34.895Z,23.40
2022-09-18T11:28:32.929Z,23.41
2022-09-18T11:29:32.587Z,23.40
2022-09-18T11:30:42.488Z,23.41
2022-09-18T11:31:33.517Z,23.43
2022-09-18T11:32:36.540Z,23.46
2022-09-18T11:33:35.485Z,23.43
2022-09-18T11:34:44.558Z,23.41
2022-09-18T11:35:36.634Z,23.43
2022-09-18T11:36:27.989Z,23.45
2022-09-18T11:37:22.970Z,23.45
2022-09-18T11:38:15.033Z,23.39
2022-09-18T11:39:04.336Z,23.39
2022-09-18T11:40:01.565Z,23.40
2022-09-18T11:40:55.562Z,23.39
2022-09-18T11:41:46.103Z,23.40
2022-09-18T11:42:43.308Z,23.44
2022-09-18T11:43:36.470Z,23.42
2022-09-18T11:44:21.291Z,23.37
2022-09-18T11:45:24.035Z,23.41
2022-09-18T11:46:29.804Z,23.42
2022-09-18T11:47:33.659Z,23.40
2022-09-18T11:48:36.305Z,23.41
2022-09-18T11:49:27.198Z,23.40
2022-09-18T11:50:20.862Z,23.38
2022-09-18T11:51:11.069Z,23.43
2022-09-18T11:52:15.032Z,23.45
2022-09-18T11:53:05.680Z,23.44
2022-09-18T11:53:56.488Z,23.41
2022-09-18T11:54:47.622Z,23.42
2022-09-18T11:55:39.350Z,23.44
2022-09-18T11:56:28.117Z,23.43
2022-09-18T11:59:48.861Z,23.43
2022-09-18T12:01:43.314Z,23.39
2022-09-18T12:02:47.648Z,23.44
2022-09-18T12:03:38.020Z,23.45
2022-09-18T12:04:44.315Z,23.42
2022-09-18T12:05:43.532Z,23.41
2022-09-18T12:06:49.477Z,23.43
2022-09-18T12:07:47.869Z,23.42
2022-09-18T12:08:50.207Z,23.39
2022-09-18T12:15:24.283Z,23.45
2022-09-18T12:16:29.642Z,23.43
2022-09-18T12:18:59.447Z,23.46
2022-09-18T12:20:51.155Z,23.46
2022-09-18T12:21:49.630Z,23.45
2022-09-18T12:22:53.396Z,23.45
2022-09-18T12:23:38.042Z,23.44
2022-09-18T12:24:28.374Z,23.43
2022-09-18T12:25:23.696Z,23.39
2022-09-18T12:26:06.263Z,23.42
2022-09-18T12:27:19.707Z,23.46
2022-09-18T12:28:09.919Z,23.47
2022-09-18T12:29:17.574Z,23.44
2022-09-18T12:30:24.133Z,23.42
2022-09-18T12:31:29.902Z,23.40
2022-09-18T12:32:42.357Z,23.40
2022-09-18T12:33:52.416Z,23.41
2022-09-18T12:34:58.410Z,23.39
2022-09-18T12:35:54.384Z,23.46
2022-09-18T12:37:03.365Z,23.48
2022-09-18T12:38:10.786Z,23.40
2022-09-18T12:39:13.188Z,23.38
2022-09-18T12:40:09.873Z,23.42
2022-09-18T12:40:52.165Z,23.38
2022-09-18T12:41:50.782Z,23.42
2022-09-18T12:42:37.076Z,23.41
2022-09-18T12:43:25.620Z,23.44
2022-09-18T12:44:29.718Z,23.41
2022-09-18T12:45:15.344Z,23.41
2022-09-18T12:46:15.364Z,23.46
2022-09-18T12:47:10.735Z,23.48
2022-09-18T12:48:14.647Z,23.47
2022-09-18T12:49:18.412Z,23.46
2022-09-18T12:50:16.210Z,23.44
2022-09-18T12:51:21.355Z,23.39
2022-09-18T12:52:10.763Z,23.41
2022-09-18T12:53:09.140Z,23.40
2022-09-18T12:53:55.392Z,23.39
2022-09-18T12:54:57.219Z,23.41
2022-09-18T12:55:39.718Z,23.41
2022-09-18T12:56:41.710Z,23.42
2022-09-18T12:57:41.162Z,23.42
2022-09-18T12:58:26.372Z,23.45
2022-09-18T12:59:32.379Z,23.43
2022-09-18T13:00:24.180Z,23.44
2022-09-18T13:01:18.239Z,23.45
2022-09-18T13:02:24.966Z,23.43
2022-09-18T13:03:30.416Z,23.44
2022-09-18T13:04:43.839Z,23.40
2022-09-18T13:05:38.450Z,23.29
2022-09-18T13:06:34.341Z,23.32
2022-09-18T13:07:35.193Z,23.40
2022-09-18T13:08:29.976Z,23.42
2022-09-18T13:09:31.181Z,23.37
2022-09-18T13:10:23.851Z,23.41
2022-09-18T13:11:22.828Z,23.42
2022-09-18T13:12:18.827Z,23.47
2022-09-18T13:13:00.344Z,23.41
2022-09-18T13:14:13.945Z,23.44
2022-09-18T13:15:05.229Z,23.47
2022-09-18T13:16:08.555Z,23.48
2022-09-18T13:17:08.181Z,23.50
2022-09-18T13:18:02.076Z,23.50
2022-09-18T13:18:44.342Z,23.47
2022-09-18T13:19:46.163Z,23.50
2022-09-18T13:20:29.735Z,23.51
2022-09-18T13:21:26.725Z,23.51
2022-09-18T13:22:25.556Z,23.52
2022-09-18T13:23:23.048Z,23.52
2022-09-18T13:28:48.312Z,23.61
2022-09-18T13:29:49.606Z,23.61
2022-09-18T13:30:38.470Z,23.63
2022-09-18T13:31:32.146Z,23.62
2022-09-18T13:37:57.697Z,23.53
2022-09-18T13:38:49.411Z,23.55
2022-09-18T13:40:00.476Z,23.55
2022-09-18T13:40:40.223Z,23.40
2022-09-18T13:41:29.412Z,23.43
2022-09-18T13:42:21.751Z,23.52
2022-09-18T13:43:11.878Z,23.56
2022-09-18T13:43:55.800Z,23.57
2022-09-18T13:44:46.470Z,23.61
2022-09-18T13:45:37.632Z,23.63
2022-09-18T13:46:56.851Z,23.65
2022-09-18T13:47:49.898Z,23.70
2022-09-18T13:48:40.778Z,23.68
2022-09-18T13:49:26.246Z,23.65
2022-09-18T13:50:16.834Z,23.67
2022-09-18T13:51:05.418Z,23.73
2022-09-18T13:51:56.964Z,23.71
2022-09-18T13:52:49.480Z,23.72
2022-09-18T13:53:42.908Z,23.76
2022-09-18T13:54:30.872Z,23.73
2022-09-18T13:55:16.073Z,23.72
2022-09-18T13:56:05.698Z,23.76
2022-09-18T13:57:06.704Z,23.77
2022-09-18T13:58:01.945Z,23.78
2022-09-18T13:59:10.142Z,23.79
2022-09-18T13:59:50.354Z,23.80
2022-09-18T14:00:53.598Z,23.80
2022-09-18T14:01:50.467Z,23.84
2022-09-18T14:02:47.025Z,23.86
2022-09-18T14:03:28.741Z,23.77
2022-09-18T14:04:31.658Z,23.76
2022-09-18T14:05:41.804Z,23.76
2022-09-18T14:06:38.870Z,23.79
2022-09-18T14:07:26.437Z,23.80
2022-09-18T14:08:10.623Z,23.77
2022-09-18T14:09:05.062Z,23.80
2022-09-18T14:09:48.635Z,23.83
2022-09-18T14:10:30.173Z,23.79
2022-09-18T14:11:24.257Z,23.83
2022-09-18T14:12:34.883Z,23.78
2022-09-18T14:13:20.674Z,23.81
2022-09-18T14:14:08.350Z,23.79
2022-09-18T14:14:52.764Z,23.81
2022-09-18T14:15:42.974Z,23.81
2022-09-18T14:16:26.461Z,23.80
2022-09-18T14:18:30.014Z,23.79
2022-09-18T14:19:41.010Z,23.84
2022-09-18T14:20:31.811Z,23.90
2022-09-18T14:21:23.959Z,23.90
2022-09-18T14:23:25.598Z,23.95
2022-09-18T14:24:44.744Z,23.98
2022-09-18T14:25:47.281Z,23.99
2022-09-18T14:26:38.571Z,23.99
2022-09-18T14:27:41.673Z,23.97
2022-09-18T14:28:38.979Z,23.99
2022-09-18T14:29:33.217Z,24.04
2022-09-18T14:30:25.914Z,23.99
2022-09-18T14:31:30.568Z,24.02
2022-09-18T14:32:31.221Z,23.99